createdAt,value
2022-09-18T00:00:39.820Z,13.85
2022-09-18T00:02:02.785Z,13.85
2022-09-18T00:03:04.765Z,13.84
2022-09-18T00:04:08.953Z,13.82
2022-09-18T00:05:10.615Z,13.83
2022-09-18T00:06:15.904Z,13.83
2022-09-18T00:07:18.622Z,13.82
2022-09-18T00:08:21.166Z,13.82
2022-09-18T00:09:22.803Z,13.82
2022-09-18T00:10:25.319Z,13.83
2022-09-18T00:11:32.955Z,13.84
2022-09-18T00:12:35.497Z,13.82
2022-09-18T00:13:39.089Z,13.83
2022-09-18T00:14:41.808Z,13.81
2022-09-18T00:15:43.401Z,13.80
2022-09-18T00:16:46.138Z,13.79
2022-09-18T00:17:48.221Z,13.78
2022-09-18T00:18:50.802Z,13.78
2022-09-18T00:19:52.400Z,13.76
2022-09-18T00:21:04.980Z,13.76
2022-09-18T00:22:11.075Z,13.75
2022-09-18T00:23:12.600Z,13.74
2022-09-18T00:24:17.397Z,13.73
2022-09-18T00:25:18.962Z,13.73
2022-09-18T00:26:21.917Z,13.71
2022-09-18T00:27:24.818Z,13.71
2022-09-18T00:28:27.609Z,13.72
2022-09-18T00:29:29.457Z,13.71
2022-09-18T00:30:31.976Z,13.69
2022-09-18T00:31:35.423Z,13.71
2022-09-18T00:32:37.959Z,13.71
2022-09-18T00:33:40.166Z,13.71
2022-09-18T00:34:42.681Z,13.72
2022-09-18T00:35:45.151Z,13.72
2022-09-18T00:36:47.656Z,13.73
2022-09-18T00:37:49.191Z,13.74
2022-09-18T00:38:51.956Z,13.74
2022-09-18T00:39:53.546Z,13.74
2022-09-18T00:40:57.204Z,13.74
2022-09-18T00:41:58.766Z,13.75
2022-09-18T00:43:21.968Z,13.74
2022-09-18T00:44:36.707Z,13.75
2022-09-18T00:45:39.261Z,13.74
2022-09-18T00:46:44.135Z,13.72
2022-09-18T00:47:49.951Z,13.73
2022-09-18T00:48:59.873Z,13.73
2022-09-18T00:50:11.389Z,13.74
2022-09-18T00:51:14.586Z,13.72
2022-09-18T00:52:19.109Z,13.71
2022-09-18T00:53:21.038Z,13.71
2022-09-18T00:54:29.202Z,13.71
2022-09-18T00:55:33.880Z,13.72
2022-09-18T00:56:38.166Z,13.72
2022-09-18T00:57:45.708Z,13.72
2022-09-18T00:58:50.689Z,13.73
2022-09-18T00:59:53.215Z,13.73
2022-09-18T01:00:56.175Z,13.73
2022-09-18T01:01:59.632Z,13.73
2022-09-18T01:03:02.351Z,13.73
2022-09-18T01:04:04.203Z,13.72
2022-09-18T01:05:08.586Z,13.73
2022-09-18T01:06:14.007Z,13.72
2022-09-18T01:07:29.061Z,13.72
2022-09-18T01:08:44.073Z,13.72
2022-09-18T01:09:56.951Z,13.71
2022-09-18T01:11:10.187Z,13.69
2022-09-18T01:12:22.369Z,13.70
2022-09-18T01:13:34.400Z,13.69
2022-09-18T01:14:45.012Z,13.70
2022-09-18T01:15:51.035Z,13.69
2022-09-18T01:17:01.921Z,13.68
2022-09-18T01:18:14.911Z,13.68
2022-09-18T01:19:38.128Z,13.69
2022-09-18T01:21:01.190Z,13.69
2022-09-18T01:22:16.898Z,13.69
2022-09-18T01:23:51.994Z,13.67
2022-09-18T01:25:16.437Z,13.67
2022-09-18T01:26:29.682Z,13.66
2022-09-18T01:27:40.497Z,13.67
2022-09-18T01:28:48.251Z,13.66
2022-09-18T01:30:01.132Z,13.66
2022-09-18T01:31:06.473Z,13.66
2022-09-18T01:32:16.629Z,13.67
2022-09-18T01:33:26.754Z,13.68
2022-09-18T01:34:33.068Z,13.69
2022-09-18T01:35:42.268Z,13.70
2022-09-18T01:36:50.024Z,13.71
2022-09-18T01:37:58.790Z,13.72
2022-09-18T01:39:12.727Z,13.72
2022-09-18T01:40:21.478Z,13.73
2022-09-18T01:41:24.924Z,13.73
2022-09-18T01:42:30.660Z,13.73
2022-09-18T01:43:34.788Z,13.75
2022-09-18T01:44:41.992Z,13.73
2022-09-18T01:45:46.668Z,13.74
2022-09-18T01:46:51.076Z,13.73
2022-09-18T01:47:56.992Z,13.73
2022-09-18T01:49:05.341Z,13.74
2022-09-18T01:50:10.308Z,13.74
2022-09-18T01:51:18.344Z,13.74
2022-09-18T01:52:26.062Z,13.73
2022-09-18T01:53:32.378Z,13.75
2022-09-18T01:54:38.724Z,13.76
2022-09-18T01:55:43.602Z,13.76
2022-09-18T01:56:50.115Z,13.74
2022-09-18T01:57:58.430Z,13.72
2022-09-18T01:59:04.545Z,13.73
2022-09-18T02:00:11.316Z,13.70
2022-09-18T02:01:18.393Z,13.71
2022-09-18T02:02:25.018Z,13.69
2022-09-18T02:03:29.236Z,13.71
2022-09-18T02:04:37.064Z,13.71
2022-09-18T02:05:43.304Z,13.71
2022-09-18T02:06:50.843Z,13.70
2022-09-18T02:08:02.611Z,13.71
2022-09-18T02:09:06.116Z,13.72
2022-09-18T02:10:08.363Z,13.71
2022-09-18T02:11:13.539Z,13.70
2022-09-18T02:12:20.637Z,13.68
2022-09-18T02:13:27.706Z,13.65
2022-09-18T02:14:33.495Z,13.64
2022-09-18T02:15:41.613Z,13.62
2022-09-18T02:16:45.541Z,13.62
2022-09-18T02:17:54.859Z,13.60
2022-09-18T02:18:58.006Z,13.60
2022-09-18T02:20:05.214Z,13.57
2022-09-18T02:21:10.429Z,13.55
2022-09-18T02:22:17.248Z,13.54
2022-09-18T02:23:20.314Z,13.54
2022-09-18T02:24:28.361Z,13.53
2022-09-18T02:25:35.399Z,13.53
2022-09-18T02:26:42.119Z,13.52
2022-09-18T02:27:44.792Z,13.52
2022-09-18T02:28:49.220Z,13.51
2022-09-18T02:29:53.744Z,13.49
2022-09-18T02:30:58.349Z,13.49
2022-09-18T02:32:02.248Z,13.48
2022-09-18T02:33:03.939Z,13.49
2022-09-18T02:34:08.231Z,13.48
2022-09-18T02:35:11.025Z,13.49
2022-09-18T02:36:39.820Z,13.49
2022-09-18T02:37:54.526Z,13.48
2022-09-18T02:39:08.334Z,13.47
2022-09-18T02:40:21.776Z,13.46
2022-09-18T02:41:34.734Z,13.45
2022-09-18T02:42:44.507Z,13.45
2022-09-18T02:43:54.366Z,13.45
2022-09-18T02:45:03.241Z,13.45
2022-09-18T02:46:17.783Z,13.46
2022-09-18T02:47:30.269Z,13.45
2022-09-18T02:48:48.544Z,13.45
2022-09-18T02:50:00.084Z,13.45
2022-09-18T02:51:11.400Z,13.43
2022-09-18T02:52:19.444Z,13.43
2022-09-18T02:53:28.461Z,13.42
2022-09-18T02:54:35.689Z,13.43
2022-09-18T02:55:45.321Z,13.42
2022-09-18T02:56:51.165Z,13.42
2022-09-18T02:57:59.422Z,13.41
2022-09-18T02:59:06.289Z,13.41
2022-09-18T03:00:12.420Z,13.41
2022-09-18T03:01:18.238Z,13.42
2022-09-18T03:02:23.704Z,13.42
2022-09-18T03:03:27.697Z,13.42
2022-09-18T03:04:32.441Z,13.41
2022-09-18T03:05:34.023Z,13.41
2022-09-18T03:06:36.522Z,13.42
2022-09-18T03:07:38.257Z,13.42
2022-09-18T03:08:40.736Z,13.41
2022-09-18T03:09:42.680Z,13.42
2022-09-18T03:10:45.168Z,13.42
2022-09-18T03:11:46.763Z,13.42
2022-09-18T03:12:49.328Z,13.41
2022-09-18T03:13:51.139Z,13.42
2022-09-18T03:14:53.603Z,13.42
2022-09-18T03:15:55.597Z,13.41
2022-09-18T03:16:59.453Z,13.42
2022-09-18T03:18:01.354Z,13.44
2022-09-18T03:19:04.344Z,13.44
2022-09-18T03:20:06.963Z,13.44
2022-09-18T03:21:09.483Z,13.44
2022-09-18T03:22:10.991Z,13.45
2022-09-18T03:23:13.841Z,13.44
2022-09-18T03:24:15.391Z,13.45
2022-09-18T03:25:17.888Z,13.44
2022-09-18T03:26:19.455Z,13.44
2022-09-18T03:27:21.937Z,13.44
2022-09-18T03:28:23.451Z,13.44
2022-09-18T03:29:26.072Z,13.44
2022-09-18T03:30:27.802Z,13.45
2022-09-18T03:31:30.402Z,13.45
2022-09-18T03:32:33.259Z,13.46
2022-09-18T03:33:37.887Z,13.46
2022-09-18T03:34:39.439Z,13.46
2022-09-18T03:35:43.402Z,13.46
2022-09-18T03:36:46.971Z,13.46
2022-09-18T03:37:48.872Z,13.44
2022-09-18T03:38:51.414Z,13.44
2022-09-18T03:39:53.930Z,13.42
2022-09-18T03:40:55.510Z,13.44
2022-09-18T03:41:58.111Z,13.43
2022-09-18T03:42:59.639Z,13.41
2022-09-18T03:44:03.672Z,13.41
2022-09-18T03:45:06.726Z,13.42
2022-09-18T03:46:09.263Z,13.42
2022-09-18T03:47:10.879Z,13.42
2022-09-18T03:48:14.679Z,13.41
2022-09-18T03:49:16.206Z,13.42
2022-09-18T03:50:18.936Z,13.42
2022-09-18T03:51:21.112Z,13.44
2022-09-18T03:52:23.617Z,13.44
2022-09-18T03:53:25.918Z,13.43
2022-09-18T03:54:28.808Z,13.45
2022-09-18T03:55:30.428Z,13.45
2022-09-18T03:56:32.988Z,13.46
2022-09-18T03:57:34.530Z,13.47
2022-09-18T03:58:37.008Z,13.47
2022-09-18T03:59:38.541Z,13.47
2022-09-18T04:00:42.074Z,13.47
2022-09-18T04:01:43.702Z,13.47
2022-09-18T04:02:46.301Z,13.47
2022-09-18T04:03:49.598Z,13.48
2022-09-18T04:04:53.769Z,13.46
2022-09-18T04:05:55.434Z,13.46
2022-09-18T04:06:57.980Z,13.47
2022-09-18T04:07:59.726Z,13.47
2022-09-18T04:09:02.332Z,13.49
2022-09-18T04:10:04.692Z,13.48
2022-09-18T04:11:07.235Z,13.48
2022-09-18T04:12:08.757Z,13.49
2022-09-18T04:13:11.260Z,13.49
2022-09-18T04:14:14.274Z,13.48
2022-09-18T04:15:17.352Z,13.48
2022-09-18T04:16:18.904Z,13.46
2022-09-18T04:17:21.593Z,13.46
2022-09-18T04:18:23.695Z,13.46
2022-09-18T04:19:27.532Z,13.46
2022-09-18T04:20:29.202Z,13.46
2022-09-18T04:21:32.561Z,13.45
2022-09-18T04:22:34.236Z,13.44
2022-09-18T04:23:36.773Z,13.45
2022-09-18T04:24:39.578Z,13.44
2022-09-18T04:25:43.766Z,13.43
2022-09-18T04:26:45.290Z,13.44
2022-09-18T04:27:47.781Z,13.42
2022-09-18T04:28:49.338Z,13.42
2022-09-18T04:29:51.841Z,13.41
2022-09-18T04:30:53.499Z,13.40
2022-09-18T04:31:55.996Z,13.41
2022-09-18T04:32:57.599Z,13.41
2022-09-18T04:34:00.106Z,13.39
2022-09-18T04:35:03.088Z,13.38
2022-09-18T04:36:05.815Z,13.38
2022-09-18T04:37:10.392Z,13.36
2022-09-18T04:38:13.218Z,13.36
2022-09-18T04:39:14.912Z,13.36
2022-09-18T04:40:17.598Z,13.36
2022-09-18T04:41:19.165Z,13.37
2022-09-18T04:42:21.607Z,13.37
2022-09-18T04:43:23.464Z,13.37
2022-09-18T04:44:26.119Z,13.38
2022-09-18T04:45:27.684Z,13.40
2022-09-18T04:46:30.235Z,13.40
2022-09-18T04:47:31.758Z,13.40
2022-09-18T04:48:37.995Z,13.41
2022-09-18T04:49:39.683Z,13.44
2022-09-18T04:50:43.487Z,13.45
2022-09-18T04:51:45.014Z,13.45
2022-09-18T04:52:47.495Z,13.46
2022-09-18T04:53:49.027Z,13.45
2022-09-18T04:54:51.517Z,13.46
2022-09-18T04:55:52.998Z,13.47
2022-09-18T04:56:55.456Z,13.49
2022-09-18T04:57:57.025Z,13.49
2022-09-18T04:58:59.873Z,13.50
2022-09-18T05:00:01.913Z,13.51
2022-09-18T05:01:16.365Z,13.51
2022-09-18T05:02:18.427Z,13.52
2022-09-18T05:03:22.468Z,13.53
2022-09-18T05:04:24.036Z,13.53
2022-09-18T05:05:27.656Z,13.54
2022-09-18T05:06:30.603Z,13.54
2022-09-18T05:07:33.197Z,13.54
2022-09-18T05:08:34.826Z,13.53
2022-09-18T05:09:37.500Z,13.53
2022-09-18T05:10:39.658Z,13.53
2022-09-18T05:11:42.174Z,13.54
2022-09-18T05:12:44.938Z,13.55
2022-09-18T05:13:48.875Z,13.55
2022-09-18T05:14:50.621Z,13.54
2022-09-18T05:15:55.531Z,13.55
2022-09-18T05:16:57.143Z,13.55
2022-09-18T05:18:00.962Z,13.54
2022-09-18T05:19:02.661Z,13.54
2022-09-18T05:20:06.018Z,13.54
2022-09-18T05:21:07.610Z,13.55
2022-09-18T05:22:11.458Z,13.54
2022-09-18T05:23:13.807Z,13.53
2022-09-18T05:24:17.384Z,13.52
2022-09-18T05:25:20.564Z,13.50
2022-09-18T05:26:23.028Z,13.49
2022-09-18T05:27:26.939Z,13.50
2022-09-18T05:28:29.734Z,13.50
2022-09-18T05:29:31.414Z,13.51
2022-09-18T05:30:33.911Z,13.51
2022-09-18T05:31:35.570Z,13.51
2022-09-18T05:32:38.065Z,13.52
2022-09-18T05:33:41.179Z,13.54
2022-09-18T05:34:43.838Z,13.56
2022-09-18T05:35:45.416Z,13.56
2022-09-18T05:36:48.218Z,13.57
2022-09-18T05:37:51.637Z,13.57
2022-09-18T05:38:54.140Z,13.57
2022-09-18T05:39:56.365Z,13.56
2022-09-18T05:41:01.518Z,13.56
2022-09-18T05:42:03.846Z,13.55
2022-09-18T05:43:07.216Z,13.56
2022-09-18T05:44:08.740Z,13.58
2022-09-18T05:45:12.044Z,13.58
2022-09-18T05:46:14.813Z,13.60
2022-09-18T05:47:17.380Z,13.60
2022-09-18T05:48:18.890Z,13.60
2022-09-18T05:49:21.389Z,13.60
2022-09-18T05:50:24.387Z,13.61
2022-09-18T05:51:26.878Z,13.61
2022-09-18T05:52:28.432Z,13.61
2022-09-18T05:53:32.371Z,13.61
2022-09-18T05:54:36.437Z,13.61
2022-09-18T05:55:39.016Z,13.62
2022-09-18T05:56:40.583Z,13.63
2022-09-18T05:57:43.070Z,13.62
2022-09-18T05:58:44.590Z,13.64
2022-09-18T05:59:47.129Z,13.64
2022-09-18T06:00:51.109Z,13.64
2022-09-18T06:01:53.597Z,13.66
2022-09-18T06:02:56.328Z,13.66
2022-09-18T06:04:02.547Z,13.67
2022-09-18T06:05:04.911Z,13.67
2022-09-18T06:06:08.148Z,13.67
2022-09-18T06:07:10.001Z,13.67
2022-09-18T06:08:13.296Z,13.66
2022-09-18T06:09:16.435Z,13.65
2022-09-18T06:10:20.488Z,13.66
2022-09-18T06:11:22.210Z,13.65
2022-09-18T06:12:24.944Z,13.65
2022-09-18T06:13:26.593Z,13.65
2022-09-18T06:14:29.169Z,13.66
2022-09-18T06:15:31.080Z,13.68
2022-09-18T06:16:34.408Z,13.67
2022-09-18T06:17:38.101Z,13.67
2022-09-18T06:18:40.554Z,13.68
2022-09-18T06:19:42.113Z,13.68
2022-09-18T06:20:45.505Z,13.69
2022-09-18T06:21:47.047Z,13.69
2022-09-18T06:22:49.598Z,13.70
2022-09-18T06:23:52.088Z,13.69
2022-09-18T06:24:54.971Z,13.70
2022-09-18T06:25:59.106Z,13.72
2022-09-18T06:27:00.634Z,13.72
2022-09-18T06:28:04.024Z,13.74
2022-09-18T06:29:05.589Z,13.73
2022-09-18T06:30:08.993Z,13.74
2022-09-18T06:31:11.527Z,13.74
2022-09-18T06:32:13.071Z,13.74
2022-09-18T06:33:15.712Z,13.77
2022-09-18T06:34:17.297Z,13.75
2022-09-18T06:35:19.762Z,13.77
2022-09-18T06:36:21.321Z,13.77
2022-09-18T06:37:24.002Z,13.78
2022-09-18T06:38:25.537Z,13.79
2022-09-18T06:39:28.300Z,13.81
2022-09-18T06:40:31.933Z,13.82
2022-09-18T06:41:34.477Z,13.83
2022-09-18T06:42:36.039Z,13.84
2022-09-18T06:43:38.507Z,13.85
2022-09-18T06:44:40.098Z,13.86
2022-09-18T06:45:42.733Z,13.85
2022-09-18T06:46:44.294Z,13.85
2022-09-18T06:47:46.799Z,13.86
2022-09-18T06:48:48.497Z,13.86
2022-09-18T06:49:51.058Z,13.85
2022-09-18T06:50:53.253Z,13.86
2022-09-18T06:51:55.785Z,13.87
2022-09-18T06:53:02.936Z,13.88
2022-09-18T06:54:06.225Z,13.88
2022-09-18T06:55:08.341Z,13.90
2022-09-18T06:56:12.183Z,13.89
2022-09-18T06:57:13.703Z,13.89
2022-09-18T06:58:17.384Z,13.90
2022-09-18T06:59:19.141Z,13.91
2022-09-18T07:00:22.577Z,13.91
2022-09-18T07:01:24.183Z,13.94
2022-09-18T07:02:26.750Z,13.94
2022-09-18T07:03:28.498Z,13.95
2022-09-18T07:04:30.983Z,13.95
2022-09-18T07:05:33.163Z,13.96
2022-09-18T07:06:35.717Z,13.97
2022-09-18T07:07:37.226Z,13.99
2022-09-18T07:08:39.685Z,14.00
2022-09-18T07:09:41.211Z,14.00
2022-09-18T07:10:43.864Z,14.01
2022-09-18T07:11:46.720Z,14.04
2022-09-18T07:12:49.831Z,14.07
2022-09-18T07:13:53.114Z,14.08
2022-09-18T07:14:55.744Z,14.09
2022-09-18T07:15:57.441Z,14.10
2022-09-18T07:17:00.045Z,14.12
2022-09-18T07:18:03.340Z,14.12
2022-09-18T07:19:05.984Z,14.13
2022-09-18T07:20:08.376Z,14.12
2022-09-18T07:21:11.172Z,14.13
2022-09-18T07:22:12.706Z,14.10
2022-09-18T07:23:15.239Z,14.10
2022-09-18T07:24:16.767Z,14.10
2022-09-18T07:25:19.245Z,14.12
2022-09-18T07:26:20.791Z,14.13
2022-09-18T07:27:24.666Z,14.13
2022-09-18T07:28:26.435Z,14.13
2022-09-18T07:29:28.931Z,14.14
2022-09-18T07:30:30.550Z,14.16
2022-09-18T07:31:35.815Z,14.18
2022-09-18T07:32:37.416Z,14.19
2022-09-18T07:33:40.417Z,14.22
2022-09-18T07:34:41.987Z,14.23
2022-09-18T07:35:44.461Z,14.25
2022-09-18T07:36:49.464Z,14.25
2022-09-18T07:37:51.976Z,14.27
2022-09-18T07:38:53.779Z,14.31
2022-09-18T07:39:56.300Z,14.31
2022-09-18T07:41:01.392Z,14.34
2022-09-18T07:42:08.751Z,14.37
2022-09-18T07:43:13.210Z,14.41
2022-09-18T07:44:14.748Z,14.45
2022-09-18T07:45:17.549Z,14.50
2022-09-18T07:46:19.432Z,14.56
2022-09-18T07:47:21.949Z,14.61
2022-09-18T07:48:24.165Z,14.67
2022-09-18T07:49:26.700Z,14.67
2022-09-18T07:50:28.566Z,14.70
2022-09-18T07:51:31.110Z,14.73
2022-09-18T07:52:32.633Z,14.74
2022-09-18T07:53:37.466Z,14.77
2022-09-18T07:54:38.988Z,14.78
2022-09-18T07:55:42.825Z,14.79
2022-09-18T07:56:46.866Z,14.80
2022-09-18T07:57:55.424Z,14.79
2022-09-18T07:58:59.319Z,14.78
2022-09-18T08:00:00.889Z,14.78
2022-09-18T08:01:09.068Z,14.77
2022-09-18T08:02:11.348Z,14.76
2022-09-18T08:03:15.150Z,14.76
2022-09-18T08:04:16.732Z,14.76
2022-09-18T08:05:19.192Z,14.79
2022-09-18T08:06:20.813Z,14.83
2022-09-18T08:07:25.848Z,14.86
2022-09-18T08:08:27.468Z,14.89
2022-09-18T08:09:30.060Z,14.90
2022-09-18T08:10:32.158Z,14.93
2022-09-18T08:11:34.687Z,14.95
2022-09-18T08:12:36.373Z,14.98
2022-09-18T08:13:39.203Z,15.01
2022-09-18T08:14:42.139Z,15.01
2022-09-18T08:15:44.636Z,15.00
2022-09-18T08:16:47.071Z,14.99
2022-09-18T08:17:49.608Z,15.01
2022-09-18T08:18:51.178Z,14.99
2022-09-18T08:19:53.692Z,14.98
2022-09-18T08:20:55.777Z,14.97
2022-09-18T08:21:58.255Z,14.96
2022-09-18T08:23:01.463Z,14.94
2022-09-18T08:24:04.423Z,14.91
2022-09-18T08:25:07.388Z,14.90
2022-09-18T08:26:10.127Z,14.90
2022-09-18T08:27:12.905Z,14.90
2022-09-18T08:28:15.648Z,14.90
2022-09-18T08:29:19.146Z,14.90
2022-09-18T08:30:23.230Z,14.89
2022-09-18T08:31:24.832Z,14.88
2022-09-18T08:32:27.371Z,14.88
2022-09-18T08:33:29.045Z,14.91
2022-09-18T08:34:31.642Z,14.94
2022-09-18T08:35:34.061Z,14.96
2022-09-18T08:36:36.609Z,14.97
2022-09-18T08:37:38.210Z,14.97
2022-09-18T08:38:40.686Z,14.95
2022-09-18T08:39:42.697Z,14.94
2022-09-18T08:41:08.868Z,14.92
2022-09-18T08:42:25.750Z,14.92
2022-09-18T08:43:44.325Z,14.89
2022-09-18T08:44:51.174Z,14.87
2022-09-18T08:46:00.581Z,14.87
2022-09-18T08:47:08.537Z,14.90
2022-09-18T08:48:15.920Z,14.94
2022-09-18T08:49:25.683Z,14.98
2022-09-18T08:50:29.587Z,15.00
2022-09-18T08:51:34.983Z,15.02
2022-09-18T08:52:41.565Z,15.04
2022-09-18T08:53:46.963Z,15.05
2022-09-18T08:54:56.254Z,15.05
2022-09-18T08:56:00.374Z,15.06
2022-09-18T08:57:15.520Z,15.06
2022-09-18T08:58:24.064Z,15.05
2022-09-18T08:59:38.236Z,15.04
2022-09-18T09:00:42.980Z,15.07
2022-09-18T09:01:56.322Z,15.10
2022-09-18T09:03:09.711Z,15.13
2022-09-18T09:04:16.122Z,15.20
2022-09-18T09:05:21.363Z,15.23
2022-09-18T09:06:33.277Z,15.25
2022-09-18T09:07:50.641Z,15.25
2022-09-18T09:09:09.679Z,15.27
2022-09-18T09:10:39.952Z,15.28
2022-09-18T09:11:50.050Z,15.28
2022-09-18T09:13:02.670Z,15.28
2022-09-18T09:14:45.851Z,15.30
2022-09-18T09:15:55.181Z,15.31
2022-09-18T09:17:04.375Z,15.30
2022-09-18T09:18:17.769Z,15.29
2022-09-18T09:19:34.758Z,15.30
2022-09-18T09:20:45.584Z,15.32
2022-09-18T09:21:56.900Z,15.35
2022-09-18T09:23:03.200Z,15.38
2022-09-18T09:24:21.099Z,15.42
2022-09-18T09:25:29.595Z,15.46
2022-09-18T09:26:32.256Z,15.48
2022-09-18T09:27:39.164Z,15.50
2022-09-18T09:28:51.303Z,15.52
2022-09-18T09:30:01.935Z,15.53
2022-09-18T09:31:08.864Z,15.51
2022-09-18T09:32:20.954Z,15.51
2022-09-18T09:33:27.754Z,15.50
2022-09-18T09:34:34.385Z,15.48
2022-09-18T09:35:42.108Z,15.48
2022-09-18T09:36:48.970Z,15.48
2022-09-18T09:37:52.767Z,15.49
2022-09-18T09:38:58.933Z,15.49
2022-09-18T09:40:08.608Z,15.52
2022-09-18T09:41:25.242Z,15.52
2022-09-18T09:42:31.054Z,15.54
2022-09-18T09:43:38.466Z,15.55
2022-09-18T09:44:44.763Z,15.56
2022-09-18T09:45:48.715Z,15.59
2022-09-18T09:47:01.268Z,15.63
2022-09-18T09:48:11.629Z,15.66
2022-09-18T09:49:18.197Z,15.69
2022-09-18T09:50:34.752Z,15.72
2022-09-18T09:51:49.167Z,15.75
2022-09-18T09:52:56.235Z,15.79
2022-09-18T09:54:00.045Z,15.83
2022-09-18T09:55:20.436Z,15.85
2022-09-18T09:56:29.420Z,15.89
2022-09-18T09:57:40.193Z,15.92
2022-09-18T09:58:53.100Z,15.96
2022-09-18T10:00:06.357Z,15.98
2022-09-18T10:01:14.105Z,16.04
2022-09-18T10:02:34.251Z,16.08
2022-09-18T10:03:47.727Z,16.12
2022-09-18T10:04:57.144Z,16.15
2022-09-18T10:06:11.319Z,16.19
2022-09-18T10:07:20.532Z,16.21
2022-09-18T10:08:27.548Z,16.21
2022-09-18T10:09:41.628Z,16.27
2022-09-18T10:10:49.241Z,16.29
2022-09-18T10:11:57.474Z,16.30
2022-09-18T10:13:03.662Z,16.32
2022-09-18T10:14:12.474Z,16.32
2022-09-18T10:15:19.419Z,16.36
2022-09-18T10:16:25.639Z,16.38
2022-09-18T10:17:34.887Z,16.41
2022-09-18T10:18:41.235Z,16.40
2022-09-18T10:19:44.412Z,16.40
2022-09-18T10:20:50.760Z,16.41
2022-09-18T10:21:55.909Z,16.43
2022-09-18T10:23:01.847Z,16.45
2022-09-18T10:24:15.980Z,16.50
2022-09-18T10:25:27.461Z,16.52
2022-09-18T10:26:34.553Z,16.57
2022-09-18T10:27:37.056Z,16.58
2022-09-18T10:28:39.554Z,16.63
2022-09-18T10:29:41.978Z,16.67
2022-09-18T10:31:01.369Z,16.73
2022-09-18T10:32:04.335Z,16.80
2022-09-18T10:33:30.721Z,16.82
2022-09-18T10:34:41.288Z,16.84
2022-09-18T10:35:45.276Z,16.82
2022-09-18T10:36:49.242Z,16.79
2022-09-18T10:37:50.797Z,16.77
2022-09-18T10:38:53.483Z,16.75
2022-09-18T10:39:57.551Z,16.73
2022-09-18T10:41:15.448Z,16.63
2022-09-18T10:42:20.540Z,16.57
2022-09-18T10:43:23.006Z,16.49
2022-09-18T10:44:28.875Z,16.41
2022-09-18T10:45:36.230Z,16.31
2022-09-18T10:46:40.900Z,16.23
2022-09-18T10:47:44.551Z,16.17
2022-09-18T10:48:46.168Z,16.11
2022-09-18T10:49:51.663Z,16.05
2022-09-18T10:50:56.246Z,16.01
2022-09-18T10:52:35.978Z,15.99
2022-09-18T10:53:38.592Z,16.00
2022-09-18T10:54:41.187Z,16.01
2022-09-18T10:55:51.584Z,16.06
2022-09-18T10:57:18.208Z,16.11
2022-09-18T10:58:30.383Z,16.16
2022-09-18T10:59:34.622Z,16.24
2022-09-18T11:00:40.167Z,16.31
2022-09-18T11:01:44.908Z,16.38
2022-09-18T11:02:52.349Z,16.44
2022-09-18T11:04:02.438Z,16.46
2022-09-18T11:05:04.948Z,16.48
2022-09-18T11:06:16.348Z,16.49
2022-09-18T11:07:22.405Z,16.49
2022-09-18T11:08:30.978Z,16.49
2022-09-18T11:09:37.781Z,16.47
2022-09-18T11:10:39.469Z,16.47
2022-09-18T11:11:45.766Z,16.46
2022-09-18T11:12:54.971Z,16.46
2022-09-18T11:14:01.023Z,16.48
2022-09-18T11:15:07.488Z,16.49
2022-09-18T11:16:10.349Z,16.51
2022-09-18T11:17:24.393Z,16.55
2022-09-18T11:18:27.062Z,16.58
2022-09-18T11:19:32.831Z,16.58
2022-09-18T11:20:40.589Z,16.60
2022-09-18T11:21:47.035Z,16.60
2022-09-18T11:22:49.554Z,16.61
2022-09-18T11:24:02.337Z,16.63
2022-09-18T11:25:18.575Z,16.62
2022-09-18T11:26:28.852Z,16.63
2022-09-18T11:27:44.914Z,16.61
2022-09-18T11:29:05.368Z,16.59
2022-09-18T11:30:15.120Z,16.57
2022-09-18T11:31:20.415Z,16.55
2022-09-18T11:32:26.204Z,16.55
2022-09-18T11:33:33.005Z,16.55
2022-09-18T11:34:38.813Z,16.53
2022-09-18T11:35:45.370Z,16.48
2022-09-18T11:36:52.849Z,16.44
2022-09-18T11:37:58.420Z,16.38
2022-09-18T11:39:01.878Z,16.34
2022-09-18T11:40:07.799Z,16.28
2022-09-18T11:41:10.939Z,16.23
2022-09-18T11:42:15.084Z,16.19
2022-09-18T11:43:21.428Z,16.13
2022-09-18T11:44:27.509Z,16.08
2022-09-18T11:45:47.786Z,16.03
2022-09-18T11:47:02.189Z,15.98
2022-09-18T11:48:16.280Z,15.96
2022-09-18T11:49:23.966Z,15.93
2022-09-18T11:50:30.336Z,15.91
2022-09-18T11:51:39.312Z,15.87
2022-09-18T11:52:45.252Z,15.84
2022-09-18T11:53:51.896Z,15.80
2022-09-18T11:55:01.426Z,15.73
2022-09-18T11:56:09.733Z,15.66
2022-09-18T11:57:16.744Z,15.59
2022-09-18T11:58:27.074Z,15.54
2022-09-18T11:59:32.697Z,15.46
2022-09-18T12:00:43.370Z,15.37
2022-09-18T12:01:50.086Z,15.27
2022-09-18T12:03:01.333Z,15.16
2022-09-18T12:04:10.721Z,15.04
2022-09-18T12:05:23.337Z,14.90
2022-09-18T12:06:34.789Z,14.78
2022-09-18T12:07:43.382Z,14.70
2022-09-18T12:08:56.119Z,14.60
2022-09-18T12:10:06.211Z,14.51
2022-09-18T12:11:20.509Z,14.39
2022-09-18T12:12:27.458Z,14.33
2022-09-18T12:13:47.934Z,14.31
2022-09-18T12:15:00.258Z,14.31
2022-09-18T12:16:11.865Z,14.31
2022-09-18T12:17:22.002Z,14.34
2022-09-18T12:18:28.238Z,14.36
2022-09-18T12:19:36.706Z,14.39
2022-09-18T12:20:43.963Z,14.42
2022-09-18T12:21:52.391Z,14.44
2022-09-18T12:22:57.450Z,14.46
2022-09-18T12:24:00.867Z,14.49
2022-09-18T12:25:11.799Z,14.52
2022-09-18T12:26:21.248Z,14.53
2022-09-18T12:27:32.316Z,14.55
2022-09-18T12:28:42.657Z,14.58
2022-09-18T12:30:00.900Z,14.58
2022-09-18T12:31:11.057Z,14.57
2022-09-18T12:32:31.756Z,14.56
2022-09-18T12:33:41.569Z,14.53
2022-09-18T12:34:51.277Z,14.47
2022-09-18T12:36:09.262Z,14.48
2022-09-18T12:37:31.332Z,14.47
2022-09-18T12:38:55.072Z,14.46
2022-09-18T12:40:18.793Z,14.47
2022-09-18T12:41:35.474Z,14.46
2022-09-18T12:42:51.544Z,14.46
2022-09-18T12:44:13.640Z,14.50
2022-09-18T12:45:52.832Z,14.51
2022-09-18T12:47:15.063Z,14.56
2022-09-18T12:48:30.698Z,14.58
2022-09-18T12:49:50.721Z,14.58
2022-09-18T12:51:05.451Z,14.57
2022-09-18T12:52:27.071Z,14.57
2022-09-18T12:53:45.816Z,14.59
2022-09-18T12:55:06.917Z,14.60
2022-09-18T12:56:31.049Z,14.59
2022-09-18T12:57:51.243Z,14.59
2022-09-18T12:59:26.970Z,14.60
2022-09-18T13:00:30.689Z,14.63
2022-09-18T13:01:36.104Z,14.62
2022-09-18T13:02:55.257Z,14.65
2022-09-18T13:04:08.655Z,14.66
2022-09-18T13:05:17.095Z,14.66
2022-09-18T13:06:26.720Z,14.66
2022-09-18T13:07:33.090Z,14.68
2022-09-18T13:08:42.923Z,14.68
2022-09-18T13:10:03.618Z,14.72
2022-09-18T13:11:14.407Z,14.72
2022-09-18T13:12:24.589Z,14.69
2022-09-18T13:13:36.426Z,14.68
2022-09-18T13:14:43.127Z,14.69
2022-09-18T13:15:51.195Z,14.68
2022-09-18T13:16:58.144Z,14.68
2022-09-18T13:18:21.825Z,14.67
2022-09-18T13:19:27.994Z,14.66
2022-09-18T13:20:35.046Z,14.67
2022-09-18T13:21:41.585Z,14.66
2022-09-18T13:22:50.890Z,14.67
2022-09-18T13:23:56.531Z,14.66
2022-09-18T13:24:58.523Z,14.66
2022-09-18T13:26:02.406Z,14.69
2022-09-18T13:27:09.629Z,14.70
2022-09-18T13:28:17.660Z,14.72
2022-09-18T13:29:47.398Z,14.77
2022-09-18T13:31:12.116Z,14.79
2022-09-18T13:32:17.097Z,14.82
2022-09-18T13:33:24.410Z,14.84
2022-09-18T13:34:26.036Z,14.85
2022-09-18T13:35:31.062Z,14.87
2022-09-18T13:36:36.448Z,14.89
2022-09-18T13:37:38.128Z,14.92
2022-09-18T13:38:46.953Z,14.92
2022-09-18T13:40:09.459Z,14.93
2022-09-18T13:41:12.132Z,14.93
2022-09-18T13:42:14.935Z,14.93
2022-09-18T13:43:34.874Z,14.94
2022-09-18T13:44:39.078Z,14.97
2022-09-18T13:45:40.734Z,14.98
2022-09-18T13:46:44.769Z,14.97
2022-09-18T13:48:01.674Z,14.97
2022-09-18T13:49:19.022Z,14.99
2022-09-18T13:50:20.818Z,14.99
2022-09-18T13:51:30.628Z,14.98
2022-09-18T13:52:42.232Z,14.98
2022-09-18T13:53:45.429Z,15.00
2022-09-18T13:55:00.024Z,14.99
2022-09-18T13:56:03.953Z,14.97
2022-09-18T13:57:20.575Z,14.95
2022-09-18T13:58:52.414Z,14.93
2022-09-18T13:59:55.714Z,14.93
2022-09-18T14:00:59.009Z,14.93
2022-09-18T14:02:02.472Z,14.92
2022-09-18T14:03:33.986Z,14.93
2022-09-18T14:05:28.391Z,14.90
2022-09-18T14:06:44.099Z,14.88
2022-09-18T14:08:31.173Z,14.89
2022-09-18T14:09:51.333Z,14.88
2022-09-18T14:11:15.389Z,14.88
2022-09-18T14:12:18.485Z,14.89
2022-09-18T14:13:43.961Z,14.87
2022-09-18T14:15:02.560Z,14.85
2022-09-18T14:16:09.996Z,14.83
2022-09-18T14:17:15.061Z,14.84
2022-09-18T14:18:22.220Z,14.82